Time;durP1;ratioP1;P1;durP2;ratioP2;P2;SDS_P1;SDS_P2;PMS_P1;PMS_P2;Temp;Humidity;BMP_temperature;BMP_pressure;BME280_temperature;BME280_humidity;BME280_pressure;Samples;Min_cycle;Max_cycle;Signal;HPM_P1;HPM_P2
2021/12/09 00:01:05;;;;;;;;;;;;;;;0.83;100.00;100043.41;4878733;29;20044;-86
2021/12/09 00:03:35;;;;;;;18.55;7.10;;;;;;;0.57;100.00;100006.25;4878437;29;19924;-86
2021/12/09 00:06:04;;;;;;;15.60;7.20;;;;;;;0.55;100.00;100002.91;4878356;29;20032;-86
2021/12/09 00:08:30;;;;;;;18.10;7.90;;;;;;;0.81;100.00;100043.56;4877881;29;20089;-86
2021/12/09 00:10:59;;;;;;;14.27;7.43;;;;;;;0.77;100.00;100034.22;4878157;29;20048;-86
2021/12/09 00:13:26;;;;;;;16.30;7.75;;;;;;;0.36;100.00;99985.44;4879315;29;20037;-86
2021/12/09 00:15:52;;;;;;;16.27;7.93;;;;;;;0.34;100.00;99982.97;4878047;29;20045;-87
2021/12/09 00:18:20;;;;;;;17.33;7.93;;;;;;;0.45;100.00;100006.59;4879367;29;20096;-86
2021/12/09 00:20:46;;;;;;;16.25;7.32;;;;;;;0.42;100.00;99982.09;4879126;29;20505;-86
2021/12/09 00:23:12;;;;;;;16.23;8.55;;;;;;;0.67;100.00;100017.56;4878128;29;20060;-86
2021/12/09 00:25:38;;;;;;;18.73;8.02;;;;;;;0.62;100.00;100023.44;4877902;29;20045;-86
2021/12/09 00:28:05;;;;;;;14.82;7.45;;;;;;;0.85;100.00;100052.88;4878022;29;20040;-86
2021/12/09 00:30:31;;;;;;;16.88;7.72;;;;;;;0.82;100.00;100053.22;4877608;29;20021;-86
2021/12/09 00:32:59;;;;;;;17.40;8.45;;;;;;;0.68;100.00;100032.59;4878865;29;20033;-86
2021/12/09 00:35:30;;;;;;;14.35;7.70;;;;;;;0.80;100.00;100055.25;4879097;29;20033;-86
2021/12/09 00:38:05;;;;;;;19.33;8.38;;;;;;;0.51;100.00;100013.91;4848345;29;20382;-85
2021/12/09 00:40:31;;;;;;;18.27;7.82;;;;;;;0.51;100.00;100016.59;4849075;29;20487;-86
2021/12/09 00:42:57;;;;;;;20.88;7.88;;;;;;;0.83;100.00;100062.09;4877761;29;20402;-86
2021/12/09 00:45:28;;;;;;;17.88;7.82;;;;;;;0.83;100.00;100059.44;4877589;29;20041;-86
2021/12/09 00:50:40;;;;;;;16.55;7.53;;;;;;;0.94;100.00;100048.34;4877541;29;20048;-86
2021/12/09 00:53:05;;;;;;;15.18;6.88;;;;;;;0.85;100.00;100041.38;4877434;29;20039;-85
2021/12/09 00:55:33;;;;;;;18.40;7.18;;;;;;;0.80;100.00;100028.53;4880646;29;20072;-86
2021/12/09 00:57:58;;;;;;;18.60;8.10;;;;;;;0.93;100.00;100053.88;4880071;29;20036;-86
2021/12/09 01:00:24;;;;;;;17.27;7.32;;;;;;;0.81;100.00;100030.22;4865168;29;20048;-85
2021/12/09 01:02:49;;;;;;;16.92;7.18;;;;;;;0.95;100.00;100063.38;4880659;29;20039;-86
2021/12/09 01:05:18;;;;;;;20.30;7.70;;;;;;;0.71;100.00;100032.25;4865185;29;20041;-85
2021/12/09 01:07:43;;;;;;;15.40;7.53;;;;;;;0.64;100.00;100029.41;4880535;29;20032;-86
2021/12/09 01:10:12;;;;;;;15.82;7.20;;;;;;;0.64;100.00;100032.09;4880229;29;20036;-85
2021/12/09 01:12:40;;;;;;;17.42;7.88;;;;;;;0.58;100.00;100024.75;4896940;29;20512;-86
2021/12/09 01:15:08;;;;;;;15.50;7.40;;;;;;;0.82;100.00;100068.44;4880508;29;20072;-86
2021/12/09 01:17:33;;;;;;;19.88;7.55;;;;;;;0.41;100.00;100004.44;4896906;29;20518;-86
2021/12/09 01:20:06;;;;;;;19.08;8.05;;;;;;;0.36;100.00;100006.81;4880493;29;20063;-86
2021/12/09 01:22:38;;;;;;;17.45;7.80;;;;;;;0.60;100.00;100038.75;4896961;29;20032;-86
2021/12/09 01:25:06;;;;;;;21.45;8.57;;;;;;;0.65;100.00;100063.13;4865847;29;20092;-86
2021/12/09 01:27:35;;;;;;;18.13;8.13;;;;;;;0.62;100.00;100059.94;4896691;29;20164;-86
2021/12/09 01:30:07;;;;;;;20.63;8.05;;;;;;;0.46;100.00;100037.63;4897174;29;20491;-85
2021/12/09 01:32:33;;;;;;;20.08;8.57;;;;;;;0.55;100.00;100057.16;4881543;29;20364;-86
2021/12/09 01:34:59;;;;;;;22.63;8.63;;;;;;;0.63;100.00;100078.47;4880371;29;20474;-86
2021/12/09 01:37:24;;;;;;;16.60;8.07;;;;;;;0.38;100.00;100039.47;4864793;29;20119;-86
2021/12/09 01:39:55;;;;;;;16.48;7.55;;;;;;;0.57;100.00;100071.13;4865005;29;20081;-86
2021/12/09 01:42:20;;;;;;;18.70;8.07;;;;;;;0.30;100.00;100027.81;4897101;29;20035;-86
2021/12/09 01:44:46;;;;;;;15.63;7.70;;;;;;;0.47;100.00;100070.50;4896284;29;20041;-85
2021/12/09 01:47:12;;;;;;;18.23;7.82;;;;;;;0.34;100.00;100036.31;4896781;29;20048;-86
2021/12/09 01:49:37;;;;;;;17.55;8.35;;;;;;;0.35;100.00;100035.31;4896745;29;20043;-86
2021/12/09 01:52:08;;;;;;;14.02;7.10;;;;;;;0.51;100.00;100061.97;4880245;29;20045;-85
2021/12/09 01:54:37;;;;;;;21.27;8.25;;;;;;;0.47;100.00;100055.31;4879879;29;20502;-85
2021/12/09 01:57:02;;;;;;;18.33;8.35;;;;;;;0.39;100.00;100039.31;4896707;29;20047;-86
2021/12/09 01:59:31;;;;;;;20.27;7.93;;;;;;;0.50;100.00;100068.34;4896733;29;20033;-86
2021/12/09 02:01:56;;;;;;;18.70;8.32;;;;;;;0.28;100.00;100024.50;4879431;29;20101;-86
2021/12/09 02:04:22;;;;;;;17.80;7.85;;;;;;;0.26;100.00;100042.47;4880118;29;20044;-85
2021/12/09 02:06:48;;;;;;;17.70;7.80;;;;;;;0.21;100.00;100023.50;4896600;29;20040;-86
2021/12/09 02:09:16;;;;;;;18.67;8.18;;;;;;;0.47;100.00;100067.81;4880117;29;20040;-86
2021/12/09 02:11:42;;;;;;;18.27;8.10;;;;;;;0.42;100.00;100065.66;4882559;29;20089;-85
2021/12/09 02:14:08;;;;;;;18.35;7.72;;;;;;;0.39;100.00;100051.84;4883455;29;20044;-85
2021/12/09 02:16:34;;;;;;;19.85;7.43;;;;;;;0.31;100.00;100053.50;4883359;29;20091;-85
2021/12/09 02:19:01;;;;;;;20.40;8.02;;;;;;;0.16;100.00;100023.16;4899610;29;20169;-86
2021/12/09 02:21:29;;;;;;;19.60;7.55;;;;;;;0.36;100.00;100060.19;4882988;29;20401;-85
2021/12/09 02:23:59;;;;;;;22.80;7.50;;;;;;;0.27;100.00;100035.34;4899621;29;20059;-85
2021/12/09 02:26:28;;;;;;;16.00;7.90;;;;;;;-0.02;100.00;99994.81;4882712;29;20045;-85
2021/12/09 02:28:55;;;;;;;18.25;7.10;;;;;;;0.23;100.00;100034.00;4900138;29;20033;-85
2021/12/09 02:31:24;;;;;;;16.60;7.13;;;;;;;0.07;100.00;100014.31;4899676;29;20542;-85
2021/12/09 02:33:51;;;;;;;16.30;7.32;;;;;;;0.34;100.00;100050.50;4899904;29;20036;-85
2021/12/09 02:36:17;;;;;;;15.27;7.45;;;;;;;0.30;100.00;100051.81;4899432;29;20115;-86
2021/12/09 02:38:43;;;;;;;18.02;7.43;;;;;;;0.16;100.00;100040.00;4899816;29;20412;-85
2021/12/09 02:41:19;;;;;;;17.15;7.45;;;;;;;0.32;100.00;100057.00;4899815;29;20028;-86
2021/12/09 02:43:48;;;;;;;16.00;7.50;;;;;;;0.28;100.00;100061.00;4899759;29;20043;-86
2021/12/09 02:46:15;;;;;;;17.38;7.75;;;;;;;0.07;100.00;100024.97;4882622;29;20402;-86
2021/12/09 02:48:42;;;;;;;18.63;7.50;;;;;;;0.13;100.00;100023.47;4899546;29;20035;-86
2021/12/09 02:51:07;;;;;;;20.40;7.45;;;;;;;0.26;100.00;100044.31;4882163;29;20099;-85
2021/12/09 02:53:34;;;;;;;18.80;7.30;;;;;;;0.11;100.00;100012.97;4881969;29;20494;-85
2021/12/09 02:55:59;;;;;;;19.67;7.43;;;;;;;0.24;100.00;100060.50;4899115;29;20028;-85
2021/12/09 02:58:25;;;;;;;17.77;7.50;;;;;;;0.03;100.00;100020.16;4899153;29;20036;-85
2021/12/09 03:00:58;;;;;;;17.40;7.53;;;;;;;0.06;100.00;100019.81;4867038;29;20040;-85
2021/12/09 03:03:24;;;;;;;20.17;7.60;;;;;;;0.03;100.00;100014.81;4882186;29;20033;-85
2021/12/09 03:05:58;;;;;;;15.18;7.18;;;;;;;0.14;100.00;100033.16;4882384;29;20530;-85
2021/12/09 03:08:34;;;;;;;19.63;7.72;;;;;;;0.05;100.00;100031.50;4882378;29;20052;-85
2021/12/09 03:11:04;;;;;;;17.75;7.25;;;;;;;-0.08;100.00;100010.66;4881909;29;20025;-85
2021/12/09 03:13:30;;;;;;;18.50;7.05;;;;;;;-0.05;100.00;100024.47;4898869;29;20121;-85
2021/12/09 03:15:55;;;;;;;19.33;7.15;;;;;;;0.36;100.00;100082.34;4899023;29;20153;-85
2021/12/09 03:18:21;;;;;;;16.23;7.20;;;;;;;0.32;100.00;100076.50;4882023;29;20491;-85
2021/12/09 03:20:46;;;;;;;15.85;6.68;;;;;;;0.24;100.00;100062.34;4881910;29;20103;-85
2021/12/09 03:23:12;;;;;;;20.83;6.97;;;;;;;0.24;100.00;100070.34;4881720;29;20032;-85
2021/12/09 03:25:37;;;;;;;17.98;6.93;;;;;;;0.15;100.00;100073.00;4881998;29;20119;-85
2021/12/09 03:28:06;;;;;;;17.55;6.72;;;;;;;0.10;100.00;100064.66;4898261;29;20032;-85
2021/12/09 03:30:31;;;;;;;18.42;7.22;;;;;;;0.17;100.00;100072.84;4881851;29;20069;-85
2021/12/09 03:32:59;;;;;;;15.30;6.18;;;;;;;0.34;100.00;100100.38;4882049;29;20032;-86
2021/12/09 03:35:25;;;;;;;15.70;6.80;;;;;;;0.25;100.00;100088.00;4867240;29;20044;-86
2021/12/09 03:37:51;;;;;;;14.73;6.05;;;;;;;0.01;100.00;100046.16;4882019;29;20040;-85
2021/12/09 03:40:16;;;;;;;18.33;6.38;;;;;;;0.06;100.00;100067.81;4898386;29;20063;-86
2021/12/09 03:42:43;;;;;;;16.83;6.60;;;;;;;-0.10;100.00;100055.34;4881789;29;20104;-85
2021/12/09 03:45:10;;;;;;;14.95;5.68;;;;;;;0.20;100.00;100101.84;4897829;29;20036;-85
2021/12/09 03:47:37;;;;;;;14.98;6.70;;;;;;;-0.09;100.00;100065.84;4898587;29;20085;-85
2021/12/09 03:50:07;;;;;;;16.15;6.43;;;;;;;-0.16;100.00;100056.81;4866523;29;20483;-86
2021/12/09 03:52:32;;;;;;;14.55;6.05;;;;;;;-0.01;100.00;100094.34;4898453;29;20063;-85
2021/12/09 03:54:58;;;;;;;15.63;5.95;;;;;;;-0.16;100.00;100079.97;4897940;29;20091;-86
2021/12/09 03:57:24;;;;;;;17.08;5.82;;;;;;;0.14;100.00;100114.03;4881735;29;20043;-85
2021/12/09 03:59:50;;;;;;;16.55;6.32;;;;;;;0.01;100.00;100094.19;4881306;29;20033;-86
2021/12/09 04:02:16;;;;;;;17.75;6.35;;;;;;;-0.05;100.00;100099.16;4897779;29;20036;-85
2021/12/09 04:04:42;;;;;;;15.70;5.57;;;;;;;0.10;100.00;100115.34;4881355;29;20067;-86
2021/12/09 04:07:08;;;;;;;15.48;5.93;;;;;;;0.05;100.00;100091.00;4898197;29;20072;-86
2021/12/09 04:09:34;;;;;;;19.98;6.75;;;;;;;-0.33;100.00;100028.47;4881595;29;20406;-86
2021/12/09 04:12:00;;;;;;;14.02;5.95;;;;;;;-0.10;100.00;100071.34;4897815;29;20084;-86
2021/12/09 04:14:25;;;;;;;16.80;5.47;;;;;;;-0.03;100.00;100081.19;4897868;29;20438;-86
2021/12/09 04:16:52;;;;;;;16.08;5.40;;;;;;;-0.06;100.00;100076.19;4880945;29;20039;-86
2021/12/09 04:19:18;;;;;;;12.65;5.97;;;;;;;0.06;100.00;100097.16;4897649;29;20482;-86
2021/12/09 04:21:44;;;;;;;16.02;5.88;;;;;;;-0.30;100.00;100036.97;4880754;29;20033;-86
2021/12/09 04:24:14;;;;;;;13.65;5.47;;;;;;;-0.12;100.00;100076.81;4880926;29;20048;-86
2021/12/09 04:26:43;;;;;;;15.95;6.20;;;;;;;-0.15;100.00;100077.13;4897621;29;20027;-85
2021/12/09 04:29:12;;;;;;;16.63;5.75;;;;;;;-0.42;100.00;100038.28;4897840;29;20108;-85
2021/12/09 04:31:39;;;;;;;14.40;5.63;;;;;;;-0.40;100.00;100042.47;4881005;29;20119;-85
2021/12/09 04:34:05;;;;;;;13.15;5.28;;;;;;;0.02;100.00;100106.53;4880386;29;20036;-86
2021/12/09 04:36:30;;;;;;;18.23;5.65;;;;;;;-0.05;100.00;100093.81;4897404;29;20043;-85
2021/12/09 04:38:56;;;;;;;17.75;5.85;;;;;;;-0.15;100.00;100087.81;4880465;29;20117;-86
2021/12/09 04:41:22;;;;;;;15.43;6.50;;;;;;;-0.32;100.00;100064.81;4880917;29;20443;-85
2021/12/09 04:43:49;;;;;;;14.90;5.28;;;;;;;-0.23;100.00;100083.31;4880738;29;20123;-85
2021/12/09 04:46:15;;;;;;;15.43;6.10;;;;;;;-0.39;100.00;100059.28;4880532;29;20032;-85
2021/12/09 04:48:42;;;;;;;17.67;5.82;;;;;;;-0.08;100.00;100106.66;4880741;29;20032;-85
2021/12/09 04:51:10;;;;;;;18.23;5.97;;;;;;;0.05;100.00;100127.53;4880814;29;20048;-86
2021/12/09 04:53:36;;;;;;;13.57;5.38;;;;;;;-0.11;100.00;100102.47;4880380;29;20558;-84
2021/12/09 04:56:02;;;;;;;13.52;5.35;;;;;;;0.06;100.00;100122.03;4896892;29;20033;-85
2021/12/09 04:58:27;;;;;;;16.27;5.80;;;;;;;-0.03;100.00;100101.66;4880714;29;20036;-85
2021/12/09 05:00:56;;;;;;;14.57;5.00;;;;;;;-0.16;100.00;100091.50;4881107;29;20068;-86
2021/12/09 05:03:21;;;;;;;14.32;5.18;;;;;;;-0.13;100.00;100096.50;4897365;29;20024;-86
2021/12/09 05:05:50;;;;;;;18.73;5.70;;;;;;;-0.43;100.00;100044.59;4880736;29;20037;-85
2021/12/09 05:08:18;;;;;;;16.77;5.13;;;;;;;-0.14;100.00;100092.16;4880595;29;20037;-85
2021/12/09 05:13:22;;;;;;;11.45;4.75;;;;;;;-0.01;100.00;100124.50;4896885;29;20500;-85
2021/12/09 05:15:48;;;;;;;15.35;4.85;;;;;;;-0.19;100.00;100110.50;4880194;29;20517;-85
2021/12/09 05:18:15;;;;;;;14.95;5.07;;;;;;;-0.14;100.00;100115.31;4897329;29;20112;-85
2021/12/09 05:20:41;;;;;;;14.88;5.18;;;;;;;-0.29;100.00;100097.28;4880244;29;20379;-86
2021/12/09 05:23:06;;;;;;;13.35;5.70;;;;;;;-0.05;100.00;100147.16;4865036;29;20057;-86
2021/12/09 05:25:32;;;;;;;20.98;5.93;;;;;;;-0.05;100.00;100146.34;4880483;29;20048;-86
2021/12/09 05:27:58;;;;;;;14.85;5.43;;;;;;;-0.15;100.00;100129.66;4864904;29;20072;-86
2021/12/09 05:30:27;;;;;;;15.68;5.50;;;;;;;-0.29;100.00;100104.47;4896772;29;20033;-86
2021/12/09 05:32:52;;;;;;;17.50;5.40;;;;;;;-0.50;100.00;100064.91;4880313;29;20036;-86
2021/12/09 05:35:19;;;;;;;15.40;5.90;;;;;;;-0.50;100.00;100078.22;4864526;29;20088;-85
2021/12/09 05:37:48;;;;;;;14.45;5.20;;;;;;;-0.38;100.00;100092.94;4880056;29;20505;-86
2021/12/09 05:40:15;;;;;;;15.77;5.72;;;;;;;-0.02;100.00;100149.50;4880225;29;20040;-86
2021/12/09 05:42:42;;;;;;;16.48;5.63;;;;;;;-0.25;100.00;100111.13;4897072;29;20064;-86
2021/12/09 05:45:10;;;;;;;16.52;5.43;;;;;;;-0.24;100.00;100129.63;4898661;29;20537;-85
2021/12/09 05:47:35;;;;;;;13.63;5.45;;;;;;;-0.04;100.00;100154.19;4883611;29;20581;-85
2021/12/09 05:50:01;;;;;;;17.88;5.68;;;;;;;-0.32;100.00;100116.28;4900478;29;20039;-85
2021/12/09 05:52:27;;;;;;;21.35;5.32;;;;;;;-0.21;100.00;100136.47;4884026;29;20462;-85
2021/12/09 05:54:52;;;;;;;17.90;5.97;;;;;;;-0.38;100.00;100111.59;4867641;29;20063;-86
2021/12/09 05:57:18;;;;;;;14.35;5.72;;;;;;;-0.34;100.00;100122.75;4868101;29;20048;-86
2021/12/09 05:59:49;;;;;;;18.15;5.97;;;;;;;-0.47;100.00;100093.91;4900371;29;20037;-86
2021/12/09 06:02:17;;;;;;;17.00;6.38;;;;;;;-0.26;100.00;100134.28;4883157;29;20413;-86
2021/12/09 06:04:44;;;;;;;17.83;5.85;;;;;;;-0.19;100.00;100142.47;4900036;29;20123;-86
2021/12/09 06:07:12;;;;;;;14.18;6.35;;;;;;;-0.29;100.00;100125.78;4868025;29;20478;-86
2021/12/09 06:09:41;;;;;;;13.82;5.70;;;;;;;-0.30;100.00;100124.13;4883351;29;20029;-86
2021/12/09 06:12:07;;;;;;;17.98;5.65;;;;;;;-0.30;100.00;100118.78;4883434;29;20500;-85
2021/12/09 06:14:33;;;;;;;18.38;6.10;;;;;;;-0.41;100.00;100102.09;4883316;29;20040;-85
2021/12/09 06:16:59;;;;;;;18.70;6.40;;;;;;;-0.46;100.00;100104.38;4883435;29;20037;-88
2021/12/09 06:19:25;;;;;;;17.45;6.40;;;;;;;-0.42;100.00;100121.72;4883233;29;20024;-88
2021/12/09 06:21:53;;;;;;;17.52;6.50;;;;;;;-0.40;100.00;100118.91;4883313;29;20032;-88
2021/12/09 06:24:20;;;;;;;16.25;6.32;;;;;;;-0.57;100.00;100078.06;4883186;29;20040;-88
2021/12/09 06:26:46;;;;;;;16.48;6.75;;;;;;;-0.43;100.00;100108.56;4883315;29;20044;-87
2021/12/09 06:29:12;;;;;;;14.70;6.15;;;;;;;-0.03;100.00;100147.84;4868357;29;20083;-90
2021/12/09 06:31:37;;;;;;;15.32;5.75;;;;;;;0.04;100.00;100147.19;4868841;29;20044;-90
2021/12/09 06:34:05;;;;;;;18.85;6.50;;;;;;;-0.27;100.00;100121.94;4884039;29;20032;-90
2021/12/09 06:36:31;;;;;;;15.80;6.80;;;;;;;-0.38;100.00;100080.44;4883550;29;20029;-89
2021/12/09 06:38:56;;;;;;;14.13;5.85;;;;;;;-0.42;100.00;100086.25;4883804;29;20039;-91
2021/12/09 06:41:22;;;;;;;13.00;6.15;;;;;;;-0.40;100.00;100086.91;4868529;29;20029;-89
2021/12/09 06:43:49;;;;;;;17.92;6.47;;;;;;;-0.41;100.00;100091.44;4884120;29;20028;-90
2021/12/09 06:46:14;;;;;;;18.10;7.15;;;;;;;-0.30;100.00;100122.28;4868262;29;20398;-89
2021/12/09 06:48:40;;;;;;;16.40;6.20;;;;;;;-0.30;100.00;100108.13;4883820;29;20028;-91
2021/12/09 06:51:08;;;;;;;14.30;6.15;;;;;;;-0.21;100.00;100123.97;4868217;29;20497;-90
2021/12/09 06:53:42;;;;;;;14.68;6.13;;;;;;;-0.11;100.00;100142.50;4882038;29;20064;-92
2021/12/09 06:56:52;;;;;;;15.05;5.97;;;;;;;-0.41;100.00;100095.94;4883048;29;20045;-93
2021/12/09 06:59:31;;;;;;;14.60;6.60;;;;;;;-0.43;100.00;100095.25;4900398;29;20123;-90
2021/12/09 07:01:57;;;;;;;16.92;5.75;;;;;;;0.03;100.00;100181.03;4868313;29;20395;-87
2021/12/09 07:04:34;;;;;;;15.70;6.30;;;;;;;-0.19;100.00;100145.16;4882932;29;20076;-89
2021/12/09 07:07:19;;;;;;;14.35;6.13;;;;;;;-0.43;100.00;100129.91;4884467;29;20135;-87
2021/12/09 07:09:44;;;;;;;16.75;5.95;;;;;;;-0.38;100.00;100141.75;4882414;29;20523;-87
2021/12/09 07:12:13;;;;;;;15.68;6.43;;;;;;;-0.70;100.00;100099.81;4882114;29;20067;-87
2021/12/09 07:14:44;;;;;;;22.33;6.90;;;;;;;-0.31;100.00;100154.44;4881446;29;20048;-86
2021/12/09 07:17:13;;;;;;;15.80;6.45;;;;;;;-0.55;100.00;100135.53;4881639;29;20032;-88
2021/12/09 07:19:41;;;;;;;17.75;6.88;;;;;;;-0.69;100.00;100113.97;4881957;29;20183;-87
2021/12/09 07:22:06;;;;;;;15.38;6.28;;;;;;;-0.37;100.00;100147.91;4881491;29;20041;-87
2021/12/09 07:24:35;;;;;;;20.00;6.90;;;;;;;-0.61;100.00;100108.69;4881385;29;20041;-87
2021/12/09 07:27:11;;;;;;;17.20;7.00;;;;;;;-0.36;100.00;100155.75;4898873;29;20029;-87
2021/12/09 07:29:46;;;;;;;19.17;6.75;;;;;;;-0.69;100.00;100105.97;4881459;29;20040;-87
2021/12/09 07:32:14;;;;;;;19.73;6.57;;;;;;;-0.36;100.00;100162.91;4881372;29;20483;-88
2021/12/09 07:34:45;;;;;;;18.95;6.93;;;;;;;-0.44;100.00;100130.91;4865218;29;20104;-86
2021/12/09 07:37:11;;;;;;;17.55;6.72;;;;;;;-0.47;100.00;100131.22;4866048;29;20119;-86
2021/12/09 07:39:36;;;;;;;16.83;6.43;;;;;;;-0.51;100.00;100122.72;4900019;29;20115;-87
2021/12/09 07:42:03;;;;;;;21.13;7.25;;;;;;;-0.57;100.00;100102.88;4916963;29;20036;-87
2021/12/09 07:44:30;;;;;;;17.58;6.53;;;;;;;-0.14;100.00;100179.31;4916967;29;20092;-87
2021/12/09 07:46:59;;;;;;;16.45;6.63;;;;;;;-0.59;100.00;100109.34;4884763;29;20474;-87
2021/12/09 07:49:28;;;;;;;15.85;5.97;;;;;;;-0.58;100.00;100117.19;4916918;29;20039;-87
2021/12/09 07:51:55;;;;;;;20.70;6.97;;;;;;;-0.40;100.00;100143.75;4916945;29;20040;-86
2021/12/09 07:54:22;;;;;;;15.10;6.35;;;;;;;-0.39;100.00;100148.06;4899029;29;20098;-87
2021/12/09 07:56:51;;;;;;;15.32;6.63;;;;;;;-0.46;100.00;100127.56;4884668;29;20139;-87
2021/12/09 07:59:19;;;;;;;16.35;6.78;;;;;;;-0.51;100.00;100124.56;4900256;29;20057;-87
2021/12/09 08:01:48;;;;;;;15.10;6.53;;;;;;;-0.21;100.00;100181.78;4884514;29;20046;-88
2021/12/09 08:04:14;;;;;;;16.42;6.18;;;;;;;-0.50;100.00;100124.41;4900285;29;20039;-87
2021/12/09 08:06:40;;;;;;;16.90;7.10;;;;;;;-0.04;100.00;100193.34;4884193;29;20036;-87
2021/12/09 08:09:08;;;;;;;18.95;7.13;;;;;;;-0.13;100.00;100176.50;4900026;29;20087;-87
2021/12/09 08:11:37;;;;;;;18.33;6.28;;;;;;;-0.16;100.00;100157.31;4916492;29;20036;-88
2021/12/09 08:14:06;;;;;;;18.30;6.35;;;;;;;-0.15;100.00;100145.66;4900254;29;20036;-88
2021/12/09 08:16:37;;;;;;;16.00;6.13;;;;;;;0.24;100.00;100193.09;4884212;29;20071;-87
2021/12/09 08:19:12;;;;;;;19.30;6.30;;;;;;;0.53;100.00;100227.31;4916692;29;20028;-87
2021/12/09 08:21:41;;;;;;;19.40;6.88;;;;;;;0.32;100.00;100164.56;4916807;29;20047;-87
2021/12/09 08:24:10;;;;;;;18.55;6.30;;;;;;;0.40;100.00;100168.25;4899113;29;20237;-87
2021/12/09 08:26:36;;;;;;;15.48;5.82;;;;;;;0.37;100.00;100145.41;4899594;29;20066;-87
2021/12/09 08:29:04;;;;;;;15.25;6.05;;;;;;;0.48;100.00;100157.59;4899071;29;20035;-87
2021/12/09 08:31:34;;;;;;;16.05;6.50;;;;;;;0.46;100.00;100140.91;4899238;29;20036;-87
2021/12/09 08:34:01;;;;;;;19.27;6.45;;;;;;;0.99;100.00;100216.97;4899640;29;20036;-87
2021/12/09 08:36:26;;;;;;;16.77;6.30;;;;;;;0.62;100.00;100150.72;4884030;29;20102;-88
2021/12/09 08:38:52;;;;;;;14.75;5.55;;;;;;;0.98;100.00;100180.56;4899126;29;20119;-87
2021/12/09 08:41:23;;;;;;;16.98;5.22;;;;;;;0.82;100.00;100160.06;4883013;29;20115;-87
2021/12/09 08:43:48;;;;;;;12.45;6.13;;;;;;;0.78;100.00;100148.03;4899272;29;20055;-88
2021/12/09 08:46:17;;;;;;;14.98;5.43;;;;;;;1.07;100.00;100183.25;4899420;29;20064;-87
2021/12/09 08:48:43;;;;;;;15.43;6.22;;;;;;;1.11;100.00;100190.75;4915892;29;20036;-87
2021/12/09 08:51:08;;;;;;;17.10;5.90;;;;;;;1.00;100.00;100159.03;4898688;29;20047;-87
2021/12/09 08:53:34;;;;;;;14.23;6.28;;;;;;;1.23;100.00;100208.09;4916099;29;20040;-87
2021/12/09 08:56:05;;;;;;;17.38;6.90;;;;;;;1.05;99.67;100159.38;4880205;29;20193;-87
2021/12/09 08:58:31;;;;;;;12.55;5.57;;;;;;;1.15;99.44;100172.53;4880983;29;20107;-87
2021/12/09 09:00:59;;;;;;;16.20;6.28;;;;;;;1.34;99.25;100196.19;4895783;29;20546;-86
2021/12/09 09:03:25;;;;;;;12.75;5.30;;;;;;;1.32;99.14;100178.69;4896395;29;20489;-93
2021/12/09 09:05:51;;;;;;;13.73;5.82;;;;;;;1.10;99.33;100157.00;4897746;29;20025;-93
2021/12/09 09:08:25;;;;;;;13.77;6.10;;;;;;;1.50;98.73;100200.66;4897602;29;20098;-93
2021/12/09 09:10:54;;;;;;;16.83;5.88;;;;;;;1.28;98.48;100148.78;4897381;29;20044;-93
2021/12/09 09:13:54;;;;;;;16.35;5.32;;;;;;;1.40;98.08;100158.09;4897430;29;20039;-93
2021/12/09 09:16:55;;;;;;;15.00;5.50;;;;;;;1.51;98.05;100166.75;4884763;29;20078;-93
2021/12/09 09:19:26;;;;;;;12.43;5.95;;;;;;;1.86;98.06;100224.28;4886408;29;20045;-93
2021/12/09 09:21:55;;;;;;;16.17;6.20;;;;;;;1.48;97.82;100151.06;4901290;29;20028;-93
2021/12/09 09:24:23;;;;;;;15.15;5.38;;;;;;;1.54;97.17;100142.34;4901284;29;20112;-93
2021/12/09 09:27:17;;;;;;;;;;;;;;;;;;;;;
2021/12/09 09:33:34;;;;;;;13.93;6.05;;;;;;;1.67;97.71;100155.13;4899648;29;20438;-92
2021/12/09 09:36:02;;;;;;;14.35;5.90;;;;;;;2.00;96.77;100198.63;4884312;29;20126;-93
2021/12/09 09:39:16;;;;;;;15.82;6.03;;;;;;;1.69;97.13;100147.78;4885618;29;20044;-93
2021/12/09 09:42:16;;;;;;;13.57;6.30;;;;;;;1.74;97.31;100156.97;4887396;29;20040;-93
2021/12/09 09:45:09;;;;;;;15.77;6.15;;;;;;;2.25;96.78;100219.91;4887358;29;20123;-93
2021/12/09 09:51:09;;;;;;;13.82;5.88;;;;;;;1.84;96.99;100162.06;4890713;29;20036;-93
2021/12/09 09:53:41;;;;;;;;;;;;;;;2.34;97.22;100242.94;4901183;29;20043;-93
2021/12/09 09:56:18;;;;;;;14.40;6.20;;;;;;;1.84;96.76;100174.63;4900345;29;19915;-93
2021/12/09 09:59:10;;;;;;;11.80;6.07;;;;;;;2.21;97.26;100210.56;4900545;29;20402;-93
2021/12/09 10:01:50;;;;;;;13.90;6.55;;;;;;;2.01;96.30;100168.19;4880116;29;20478;-94
2021/12/09 10:05:00;;;;;;;12.85;5.63;;;;;;;2.06;96.58;100171.16;4889761;29;20451;-92
2021/12/09 10:08:14;;;;;;;13.95;5.93;;;;;;;2.14;95.97;100164.09;4887226;29;20044;-93
2021/12/09 10:10:45;;;;;;;13.15;5.80;;;;;;;2.37;95.34;100191.72;4900586;29;20033;-92
2021/12/09 10:13:21;;;;;;;13.20;6.88;;;;;;;2.23;95.63;100163.03;4900440;29;20394;-92
2021/12/09 10:16:08;;;;;;;13.27;5.85;;;;;;;2.70;95.80;100239.69;4900139;29;20431;-92
2021/12/09 10:22:21;;;;;;;19.05;6.20;;;;;;;2.86;95.31;100233.38;4900429;29;20038;-92
2021/12/09 10:25:38;;;;;;;14.15;6.05;;;;;;;2.90;95.47;100218.59;4900271;29;20036;-93
2021/12/09 10:31:43;;;;;;;13.23;6.03;;;;;;;2.74;93.81;100149.91;4822850;29;20030;-92
2021/12/09 10:34:40;;;;;;;14.13;6.07;;;;;;;2.64;93.84;100149.31;4824856;29;20038;-92
2021/12/09 10:37:49;;;;;;;10.90;5.43;;;;;;;2.73;94.43;100144.72;4807595;29;20497;-92
2021/12/09 10:40:26;;;;;;;15.20;6.18;;;;;;;3.07;94.53;100210.41;4818246;29;20046;-92
2021/12/09 10:50:20;;;;;;;13.25;5.95;;;;;;;2.66;94.86;100146.47;4898740;29;20036;-92
2021/12/09 10:59:33;;;;;;;16.55;6.00;;;;;;;2.76;93.92;100149.72;4876386;29;20052;-88
2021/12/09 11:02:25;;;;;;;14.07;6.50;;;;;;;2.76;93.86;100150.56;4905311;29;20160;-92
2021/12/09 11:05:24;;;;;;;17.38;6.38;;;;;;;2.77;94.53;100154.06;4884705;29;20636;-92
2021/12/09 11:08:47;;;;;;;13.15;6.90;;;;;;;3.29;93.78;100219.41;4899725;29;20104;-92
2021/12/09 11:12:09;;;;;;;13.73;6.80;;;;;;;2.87;94.21;100141.25;4893858;29;20458;-93
2021/12/09 11:18:30;;;;;;;12.77;6.30;;;;;;;2.99;93.44;100147.00;4899383;29;20499;-93
2021/12/09 11:44:09;;;;;;;11.35;5.75;;;;;;;3.65;92.74;100195.38;5804488;23;20052;-93
2021/12/09 11:47:18;;;;;;;;;;;;;;;;;;;;;
2021/12/09 11:50:07;;;;;;;9.68;5.63;;;;;;;3.13;92.72;100115.84;4860514;29;20056;-89
2021/12/09 11:52:53;;;;;;;8.05;5.40;;;;;;;3.04;93.80;100117.81;4920339;29;20115;-92
2021/12/09 12:14:44;;;;;;;10.52;6.18;;;;;;;3.66;93.53;100156.81;4878722;29;20124;-93
2021/12/09 12:17:41;;;;;;;12.13;6.15;;;;;;;3.62;93.30;100138.59;4877220;29;20029;-92
2021/12/09 12:20:38;;;;;;;7.32;5.20;;;;;;;3.58;93.28;100143.50;4920036;29;20043;-92
2021/12/09 12:23:26;;;;;;;8.82;5.40;;;;;;;3.23;94.26;100097.63;4920003;29;20078;-92
2021/12/09 12:35:49;;;;;;;10.07;5.70;;;;;;;3.55;93.78;100113.53;4936799;29;20454;-92
2021/12/09 12:38:48;;;;;;;10.05;5.80;;;;;;;3.88;94.39;100156.84;4922005;29;20520;-92
2021/12/09 12:52:03;;;;;;;11.55;6.03;;;;;;;3.50;93.55;100098.00;4903232;29;20405;-92
2021/12/09 12:58:17;;;;;;;11.88;6.60;;;;;;;3.54;93.95;100104.63;4936419;29;20043;-92
2021/12/09 13:01:46;;;;;;;;;;;;;;;;;;;;;
2021/12/09 13:08:39;;;;;;;;;;;;;;;;;;;;;
2021/12/09 13:11:47;;;;;;;15.68;7.53;;;;;;;3.44;94.21;100096.91;4795129;29;20034;-94
2021/12/09 13:14:47;;;;;;;;;;;;;;;;;;;;;
2021/12/09 13:18:06;;;;;;;11.68;7.40;;;;;;;3.34;95.13;100088.31;4839784;29;20046;-94
2021/12/09 13:21:00;;;;;;;15.02;7.78;;;;;;;3.56;94.41;100113.34;4868284;29;20428;-93
2021/12/09 13:23:44;;;;;;;15.07;7.72;;;;;;;3.58;94.06;100111.28;4914489;29;20050;-93
2021/12/09 13:26:44;;;;;;;14.88;7.80;;;;;;;3.81;94.38;100156.78;4891239;29;20864;-93
2021/12/09 13:29:45;;;;;;;14.48;7.40;;;;;;;3.68;94.75;100127.09;4920031;29;20086;-93
2021/12/09 13:55:32;;;;;;;18.35;6.82;;;;;;;3.92;94.19;100146.59;4904573;29;20067;-93
2021/12/09 13:58:22;;;;;;;;;;;;;;;;;;;;;